Time;durP1;ratioP1;P1;durP2;ratioP2;P2;SDS_P1;SDS_P2;PMS_P1;PMS_P2;Temp;Humidity;BMP_temperature;BMP_pressure;BME280_temperature;BME280_humidity;BME280_pressure;Samples;Min_cycle;Max_cycle;Signal;HPM_P1;HPM_P2
2022/05/02 00:01:09;;;;;;;4.97;3.40;;;9.90;99.90;;;;;;5133677;27;20234;-60
2022/05/02 00:03:37;;;;;;;3.80;3.40;;;9.90;99.90;;;;;;5133618;27;20230;-59
2022/05/02 00:06:07;;;;;;;3.50;2.90;;;9.70;99.90;;;;;;5133337;27;20237;-60
2022/05/02 00:08:37;;;;;;;3.93;3.37;;;9.70;99.90;;;;;;5133599;27;20295;-59
2022/05/02 00:11:05;;;;;;;4.10;3.30;;;9.60;99.90;;;;;;5133570;27;20700;-59
2022/05/02 00:13:33;;;;;;;4.00;3.53;;;9.50;99.90;;;;;;5133547;27;20253;-60
2022/05/02 00:16:01;;;;;;;4.00;3.33;;;9.60;99.90;;;;;;5133552;27;20236;-60
2022/05/02 00:18:30;;;;;;;3.60;3.30;;;9.50;99.90;;;;;;5133330;27;20287;-60
2022/05/02 00:20:58;;;;;;;3.90;3.50;;;9.40;99.90;;;;;;5133152;27;20231;-59
2022/05/02 00:23:26;;;;;;;5.57;3.80;;;9.30;99.90;;;;;;5133014;27;20238;-60
2022/05/02 00:25:56;;;;;;;4.30;3.67;;;9.30;99.90;;;;;;5133434;27;20237;-59
2022/05/02 00:28:24;;;;;;;5.27;3.63;;;9.20;99.90;;;;;;5133032;27;20238;-60
2022/05/02 00:30:52;;;;;;;4.37;3.83;;;9.10;99.90;;;;;;5132911;27;20245;-60
2022/05/02 00:33:20;;;;;;;6.20;3.97;;;9.20;99.90;;;;;;5114794;27;20657;-59
2022/05/02 00:35:48;;;;;;;5.57;3.97;;;9.10;99.90;;;;;;5132606;27;20237;-60
2022/05/02 00:38:17;;;;;;;4.77;4.23;;;9.10;99.90;;;;;;5132859;27;20759;-59
2022/05/02 00:40:45;;;;;;;4.53;4.13;;;9.00;99.90;;;;;;5132668;27;20234;-59
2022/05/02 00:43:14;;;;;;;5.97;4.20;;;9.00;99.90;;;;;;5132804;27;20637;-60
2022/05/02 00:45:42;;;;;;;6.40;3.70;;;9.00;99.90;;;;;;5132798;27;20234;-60
2022/05/02 00:48:11;;;;;;;4.23;3.83;;;8.90;99.90;;;;;;5132805;27;20769;-60
2022/05/02 00:50:41;;;;;;;4.97;4.10;;;8.80;99.90;;;;;;5128323;27;20239;-60
2022/05/02 00:53:10;;;;;;;4.13;3.70;;;8.90;99.90;;;;;;5112297;28;20596;-60
2022/05/02 00:55:45;;;;;;;4.10;3.70;;;8.80;99.90;;;;;;5112039;28;20279;-60
2022/05/02 00:58:16;;;;;;;5.60;3.73;;;8.70;99.90;;;;;;5115626;27;20236;-60
2022/05/02 01:00:45;;;;;;;6.10;4.17;;;8.80;99.90;;;;;;5124977;27;20245;-60
2022/05/02 01:03:14;;;;;;;4.13;3.73;;;8.70;99.90;;;;;;5132394;27;20232;-60
2022/05/02 01:08:33;;;;;;;4.17;3.77;;;8.60;99.90;;;;;;5132137;27;20241;-59
2022/05/02 01:11:02;;;;;;;5.57;4.13;;;8.50;99.90;;;;;;5103978;27;20228;-60
2022/05/02 01:13:37;;;;;;;4.53;4.07;;;8.50;99.90;;;;;;5132196;27;20234;-60
2022/05/02 01:16:11;;;;;;;6.27;4.07;;;8.50;99.90;;;;;;5131869;27;20260;-61
2022/05/02 01:18:40;;;;;;;5.57;4.50;;;8.50;99.90;;;;;;5132103;27;20244;-60
2022/05/02 01:21:12;;;;;;;4.93;4.40;;;8.40;99.90;;;;;;5130927;27;20678;-59
2022/05/02 01:23:40;;;;;;;4.27;3.83;;;8.40;99.90;;;;;;5130047;27;20240;-59
2022/05/02 01:26:08;;;;;;;5.33;4.30;;;8.30;99.90;;;;;;5131791;27;20599;-60
2022/05/02 01:28:47;;;;;;;5.57;4.10;;;8.30;99.90;;;;;;5131833;27;20316;-60
2022/05/02 01:31:17;;;;;;;4.70;4.20;;;8.30;99.90;;;;;;5131880;27;20233;-59
2022/05/02 01:33:46;;;;;;;6.70;4.50;;;8.30;99.90;;;;;;5131634;27;20286;-59
2022/05/02 01:36:16;;;;;;;4.10;3.70;;;8.20;99.90;;;;;;5131451;27;20241;-59
2022/05/02 01:38:45;;;;;;;4.90;4.23;;;8.20;99.90;;;;;;5131594;27;20240;-59
2022/05/02 01:41:13;;;;;;;4.93;4.00;;;8.20;99.90;;;;;;5131256;27;20660;-59
2022/05/02 01:43:42;;;;;;;4.40;4.00;;;8.20;99.90;;;;;;5131434;27;20257;-59
2022/05/02 01:46:13;;;;;;;5.93;4.43;;;8.10;99.90;;;;;;5131834;27;20252;-59
2022/05/02 01:48:42;;;;;;;6.27;4.97;;;8.20;99.90;;;;;;5131540;27;20647;-59
2022/05/02 01:51:10;;;;;;;5.00;4.47;;;8.10;99.90;;;;;;5131379;27;20716;-59
2022/05/02 01:53:40;;;;;;;5.07;4.50;;;8.10;99.90;;;;;;5131375;27;20237;-60
2022/05/02 01:56:08;;;;;;;5.23;4.40;;;8.10;99.90;;;;;;5130822;27;20244;-59
2022/05/02 01:58:36;;;;;;;8.40;4.37;;;8.10;99.90;;;;;;5131236;27;20596;-60
2022/05/02 02:01:04;;;;;;;5.37;4.73;;;8.10;99.90;;;;;;5132066;27;20225;-59
2022/05/02 02:03:33;;;;;;;5.73;4.50;;;7.90;99.90;;;;;;5131478;27;20316;-59
2022/05/02 02:06:01;;;;;;;4.87;4.37;;;7.90;99.90;;;;;;5131421;27;20236;-59
2022/05/02 02:08:31;;;;;;;6.73;4.73;;;7.80;99.90;;;;;;5131435;27;20716;-59
2022/05/02 02:11:02;;;;;;;4.43;4.03;;;7.80;99.90;;;;;;5131413;27;20230;-59
2022/05/02 02:13:31;;;;;;;4.70;4.20;;;7.70;99.90;;;;;;5131227;27;20245;-59
2022/05/02 02:16:01;;;;;;;5.23;4.73;;;7.70;99.90;;;;;;5131462;27;20235;-59
2022/05/02 02:18:29;;;;;;;5.07;4.50;;;7.70;99.90;;;;;;5131110;27;20241;-60
2022/05/02 02:20:57;;;;;;;6.20;4.17;;;7.60;99.90;;;;;;5130164;27;20227;-59
2022/05/02 02:23:26;;;;;;;5.37;4.20;;;7.60;99.90;;;;;;5131180;27;20228;-60
2022/05/02 02:25:54;;;;;;;4.47;4.07;;;7.60;99.90;;;;;;5130921;27;20233;-59
2022/05/02 02:28:23;;;;;;;5.97;4.70;;;7.50;99.90;;;;;;5112776;27;20229;-59
2022/05/02 02:30:51;;;;;;;5.50;4.70;;;7.60;99.90;;;;;;5131049;28;20721;-59
2022/05/02 02:33:20;;;;;;;5.30;4.80;;;7.50;99.90;;;;;;5130859;27;20236;-59
2022/05/02 02:35:48;;;;;;;5.30;4.40;;;7.50;99.90;;;;;;5131154;27;20657;-60
2022/05/02 02:38:16;;;;;;;5.30;4.80;;;7.40;99.90;;;;;;5134515;27;20319;-59
2022/05/02 02:40:44;;;;;;;4.93;4.43;;;7.40;99.90;;;;;;5135301;27;20325;-59
2022/05/02 02:43:13;;;;;;;5.00;4.40;;;7.40;99.90;;;;;;5135092;27;20260;-59
2022/05/02 02:45:42;;;;;;;7.20;4.47;;;7.50;99.90;;;;;;5116803;27;20237;-59
2022/05/02 02:48:10;;;;;;;6.40;4.77;;;7.50;99.90;;;;;;5134779;27;20225;-59
2022/05/02 02:50:39;;;;;;;5.33;4.83;;;7.40;99.90;;;;;;5134657;27;20237;-59
2022/05/02 02:53:07;;;;;;;6.13;4.97;;;7.30;99.90;;;;;;5135375;27;20248;-60
2022/05/02 02:55:35;;;;;;;4.53;4.13;;;7.30;99.90;;;;;;5135240;27;20233;-60
2022/05/02 02:58:04;;;;;;;4.97;4.47;;;7.30;99.90;;;;;;5135104;27;20233;-59
2022/05/02 03:00:32;;;;;;;4.87;4.33;;;7.30;99.90;;;;;;5134584;27;20718;-60
2022/05/02 03:03:03;;;;;;;5.00;4.30;;;7.30;99.90;;;;;;5134276;27;20229;-59
2022/05/02 03:08:16;;;;;;;7.00;4.73;;;7.30;99.90;;;;;;5134785;27;20301;-59
2022/05/02 03:10:44;;;;;;;5.57;4.90;;;7.20;99.90;;;;;;5134510;27;20229;-59
2022/05/02 03:13:12;;;;;;;7.23;4.47;;;7.20;99.90;;;;;;5134522;27;20237;-59
2022/05/02 03:15:40;;;;;;;4.80;4.33;;;7.20;99.90;;;;;;5134074;27;20237;-59
2022/05/02 03:18:10;;;;;;;6.13;4.97;;;7.20;99.90;;;;;;5129259;27;20240;-59
2022/05/02 03:20:38;;;;;;;5.03;4.50;;;7.00;99.90;;;;;;5118310;27;20260;-59
2022/05/02 03:23:06;;;;;;;7.57;4.97;;;6.90;99.90;;;;;;5134999;27;20286;-59
2022/05/02 03:25:34;;;;;;;5.30;4.73;;;6.90;99.90;;;;;;5134369;27;20229;-59
2022/05/02 03:28:03;;;;;;;5.90;5.00;;;6.90;99.90;;;;;;5134164;27;20320;-60
2022/05/02 03:30:31;;;;;;;7.10;4.90;;;6.90;99.90;;;;;;5133544;27;20302;-60
2022/05/02 03:32:59;;;;;;;6.30;5.20;;;6.90;99.90;;;;;;5133846;27;20237;-59
2022/05/02 03:35:29;;;;;;;5.87;4.77;;;7.00;99.90;;;;;;5134316;27;20565;-59
2022/05/02 03:37:57;;;;;;;7.40;5.63;;;6.90;99.90;;;;;;5134154;27;20266;-59
2022/05/02 03:40:25;;;;;;;5.83;5.23;;;6.80;99.90;;;;;;5133983;27;20229;-59
2022/05/02 03:42:53;;;;;;;7.23;5.63;;;6.80;99.90;;;;;;5133725;27;20320;-59
2022/05/02 03:45:22;;;;;;;6.10;5.50;;;6.70;99.90;;;;;;5133411;27;20221;-59
2022/05/02 03:47:50;;;;;;;5.63;5.00;;;6.60;99.90;;;;;;5132856;27;20241;-59
2022/05/02 03:50:18;;;;;;;5.13;4.63;;;6.50;99.90;;;;;;5134021;27;20236;-59
2022/05/02 03:52:52;;;;;;;5.83;4.30;;;6.50;99.90;;;;;;5133914;27;20738;-59
2022/05/02 03:55:20;;;;;;;5.40;4.90;;;6.50;99.90;;;;;;5133770;27;20229;-59
2022/05/02 03:57:49;;;;;;;5.73;5.13;;;6.60;99.90;;;;;;5133118;27;20229;-59
2022/05/02 04:00:18;;;;;;;5.93;4.83;;;6.50;99.90;;;;;;5132041;27;20588;-59
2022/05/02 04:02:52;;;;;;;5.17;4.67;;;6.60;99.90;;;;;;5131651;27;20228;-59
2022/05/02 04:05:20;;;;;;;6.93;4.90;;;6.50;99.90;;;;;;5133250;27;20257;-59
2022/05/02 04:07:48;;;;;;;6.30;5.43;;;6.70;99.90;;;;;;5133109;27;20252;-59
2022/05/02 04:10:18;;;;;;;6.53;5.20;;;6.60;99.90;;;;;;5133170;27;20328;-59
2022/05/02 04:12:46;;;;;;;7.73;5.20;;;6.60;99.90;;;;;;5132831;27;20244;-59
2022/05/02 04:15:15;;;;;;;5.97;5.33;;;6.60;99.90;;;;;;5133363;27;20226;-59
2022/05/02 04:17:43;;;;;;;5.90;5.30;;;6.70;99.90;;;;;;5132885;27;20241;-59
2022/05/02 04:20:11;;;;;;;6.23;5.73;;;6.60;99.90;;;;;;5133309;27;20229;-59
2022/05/02 04:22:41;;;;;;;5.57;5.07;;;6.60;99.90;;;;;;5133196;27;20369;-59
2022/05/02 04:25:10;;;;;;;6.83;5.67;;;6.60;99.90;;;;;;5133567;27;20236;-59
2022/05/02 04:27:40;;;;;;;6.17;5.57;;;6.70;99.90;;;;;;5133095;27;20240;-60
2022/05/02 04:30:10;;;;;;;6.93;5.23;;;6.70;99.90;;;;;;5131825;27;20236;-60
2022/05/02 04:32:38;;;;;;;7.83;5.30;;;6.70;99.90;;;;;;5132998;27;20245;-59
2022/05/02 04:35:10;;;;;;;7.07;5.70;;;6.90;99.90;;;;;;5133566;27;20276;-59
2022/05/02 04:37:38;;;;;;;6.07;5.47;;;6.90;99.90;;;;;;5133111;27;20248;-59
2022/05/02 04:40:08;;;;;;;6.90;5.27;;;6.90;99.90;;;;;;5133271;27;20222;-59
2022/05/02 04:42:38;;;;;;;7.20;5.60;;;7.00;99.90;;;;;;5132875;27;20233;-59
2022/05/02 04:45:08;;;;;;;7.70;6.00;;;6.90;99.90;;;;;;5133175;27;20229;-59
2022/05/02 04:47:36;;;;;;;10.60;5.97;;;7.10;99.90;;;;;;5132466;27;20307;-59
2022/05/02 04:50:05;;;;;;;10.07;6.93;;;7.20;99.90;;;;;;5133244;27;20298;-59
2022/05/02 04:52:34;;;;;;;7.90;6.87;;;7.50;99.90;;;;;;5132833;27;20746;-59
2022/05/02 04:55:02;;;;;;;8.13;6.73;;;7.40;99.90;;;;;;5131164;27;20240;-59
2022/05/02 04:57:30;;;;;;;7.33;6.53;;;7.50;99.90;;;;;;5132647;27;20240;-59
2022/05/02 04:59:59;;;;;;;7.20;6.20;;;7.70;99.90;;;;;;5130860;27;20261;-59
2022/05/02 05:02:28;;;;;;;6.57;5.80;;;7.60;99.90;;;;;;5132074;27;20316;-59
2022/05/02 05:04:56;;;;;;;6.10;5.50;;;7.60;99.90;;;;;;5132615;27;20237;-59
2022/05/02 05:07:24;;;;;;;7.23;6.43;;;7.70;99.90;;;;;;5132762;27;20233;-59
2022/05/02 05:09:53;;;;;;;7.17;6.47;;;7.80;99.90;;;;;;5132059;27;20297;-59
2022/05/02 05:12:33;;;;;;;10.07;7.50;;;7.90;99.90;;;;;;5131759;27;20312;-59
2022/05/02 05:18:22;;;;;;;8.20;7.13;;;8.30;99.90;;;;;;5111746;28;20233;-59
2022/05/02 05:21:00;;;;;;;14.73;8.43;;;8.30;99.90;;;;;;5111496;28;20253;-59
2022/05/02 05:24:11;;;;;;;9.50;8.00;;;8.50;99.90;;;;;;5111783;28;20609;-59
2022/05/02 05:26:47;;;;;;;7.77;7.07;;;8.70;99.90;;;;;;5111085;28;20649;-59
2022/05/02 05:29:30;;;;;;;9.30;7.70;;;8.90;99.90;;;;;;5125297;27;20293;-59
2022/05/02 05:32:08;;;;;;;12.07;8.33;;;8.90;99.90;;;;;;5131621;27;20681;-58
2022/05/02 05:34:48;;;;;;;8.93;8.07;;;9.10;99.90;;;;;;5124507;27;20237;-59
2022/05/02 05:37:56;;;;;;;9.63;8.33;;;9.20;99.90;;;;;;5130404;27;20237;-59
2022/05/02 05:40:28;;;;;;;9.00;8.00;;;9.20;99.90;;;;;;5111613;28;20229;-60
2022/05/02 05:43:23;;;;;;;11.77;8.53;;;9.40;99.90;;;;;;5124197;27;20255;-59
2022/05/02 05:46:10;;;;;;;10.07;8.47;;;9.50;99.90;;;;;;5119409;27;20692;-59
2022/05/02 05:48:47;;;;;;;14.00;9.13;;;9.60;99.90;;;;;;5131794;27;20263;-59
2022/05/02 05:51:29;;;;;;;11.00;8.50;;;9.80;99.90;;;;;;5131019;27;20940;-59
2022/05/02 05:54:11;;;;;;;10.40;8.33;;;10.00;99.90;;;;;;5127962;27;20258;-59
2022/05/02 05:56:48;;;;;;;11.30;8.50;;;10.10;99.90;;;;;;5112794;27;20574;-59
2022/05/02 05:59:33;;;;;;;18.97;8.70;;;10.20;99.90;;;;;;5122937;27;20598;-59
2022/05/02 06:02:18;;;;;;;24.13;10.27;;;10.40;99.90;;;;;;5130527;27;20227;-59
2022/05/02 06:04:49;;;;;;;31.10;9.00;;;10.60;99.90;;;;;;5124300;27;20239;-59
2022/05/02 06:07:21;;;;;;;17.23;9.60;;;10.70;99.90;;;;;;5131654;27;20602;-59
2022/05/02 06:09:50;;;;;;;25.50;8.20;;;10.80;99.90;;;;;;5130910;27;20247;-59
2022/05/02 06:12:22;;;;;;;22.47;8.23;;;11.00;99.90;;;;;;5128951;27;20227;-59
2022/05/02 06:20:29;;;;;;;22.27;9.13;;;11.60;99.90;;;;;;5116063;27;20318;-59
2022/05/02 06:23:00;;;;;;;11.80;8.00;;;11.80;99.90;;;;;;5110151;27;20620;-59
2022/05/02 06:25:30;;;;;;;11.90;7.60;;;11.90;99.90;;;;;;5129099;27;20295;-59
2022/05/02 06:27:59;;;;;;;11.43;7.77;;;12.20;99.90;;;;;;5129885;27;20231;-59
2022/05/02 06:30:29;;;;;;;10.60;7.10;;;12.40;99.90;;;;;;5110632;28;20290;-59
2022/05/02 06:33:01;;;;;;;9.60;7.57;;;12.60;99.90;;;;;;5099953;28;20248;-59
2022/05/02 06:35:40;;;;;;;10.73;6.93;;;12.60;99.90;;;;;;5102764;28;20237;-59
2022/05/02 06:38:18;;;;;;;11.40;7.20;;;12.80;99.90;;;;;;5090656;28;20693;-59
2022/05/02 06:40:56;;;;;;;15.40;8.43;;;12.90;99.90;;;;;;5098549;27;20248;-59
2022/05/02 06:43:33;;;;;;;9.57;7.80;;;13.20;99.90;;;;;;5110610;27;20659;-59
2022/05/02 06:46:12;;;;;;;8.83;7.47;;;13.30;99.90;;;;;;5111104;28;20236;-60
2022/05/02 06:48:43;;;;;;;7.90;6.63;;;13.40;99.90;;;;;;5110902;28;20684;-59
2022/05/02 06:51:20;;;;;;;8.10;7.30;;;13.50;99.90;;;;;;5110536;28;20749;-59
2022/05/02 06:54:18;;;;;;;8.07;6.53;;;13.60;99.90;;;;;;5110365;27;20327;-61
2022/05/02 06:56:51;;;;;;;6.70;6.00;;;13.80;99.90;;;;;;5110283;27;20302;-60
2022/05/02 06:59:40;;;;;;;8.77;6.00;;;14.10;99.90;;;;;;5110341;27;20282;-59
2022/05/02 07:02:29;;;;;;;8.43;6.10;;;14.40;99.90;;;;;;5110115;28;20266;-60
2022/05/02 07:05:03;;;;;;;6.67;5.97;;;14.60;99.90;;;;;;5109581;27;20708;-59
2022/05/02 07:07:52;;;;;;;6.97;4.97;;;14.70;99.90;;;;;;5110232;27;20246;-60
2022/05/02 07:10:24;;;;;;;5.83;4.83;;;15.00;99.90;;;;;;5109087;28;20316;-60
2022/05/02 07:13:03;;;;;;;5.07;4.40;;;15.20;99.90;;;;;;5128910;27;20632;-61
2022/05/02 07:15:41;;;;;;;4.73;4.10;;;15.40;99.90;;;;;;5130061;27;20240;-59
2022/05/02 07:18:25;;;;;;;7.17;4.27;;;15.70;99.90;;;;;;5129277;27;20252;-59
2022/05/02 07:21:06;;;;;;;4.57;3.30;;;16.10;99.90;;;;;;5119566;27;20626;-59
2022/05/02 07:23:49;;;;;;;4.40;3.77;;;16.40;99.90;;;;;;5131492;27;20228;-61
2022/05/02 07:26:20;;;;;;;4.10;3.50;;;16.40;99.90;;;;;;5133069;27;20691;-60
2022/05/02 07:28:50;;;;;;;3.50;3.20;;;16.50;99.90;;;;;;5133605;27;20235;-60
2022/05/02 07:31:20;;;;;;;3.10;2.80;;;16.70;99.90;;;;;;5134167;27;20700;-60
2022/05/02 07:33:50;;;;;;;3.20;2.83;;;16.90;99.90;;;;;;5134309;27;20255;-60
2022/05/02 07:36:20;;;;;;;3.40;2.67;;;17.10;99.90;;;;;;5134380;27;20229;-60
2022/05/02 07:38:51;;;;;;;2.70;2.50;;;17.20;99.90;;;;;;5134010;27;20241;-60
2022/05/02 07:41:25;;;;;;;4.00;2.87;;;17.40;99.90;;;;;;5132280;27;20233;-60
2022/05/02 07:43:59;;;;;;;4.40;3.10;;;17.50;99.90;;;;;;5134037;27;20594;-60
2022/05/02 07:46:32;;;;;;;3.70;3.00;;;17.60;99.90;;;;;;5133888;27;20753;-60
2022/05/02 07:49:02;;;;;;;4.20;3.00;;;17.70;99.90;;;;;;5133657;27;20291;-60
2022/05/02 07:51:31;;;;;;;5.87;3.20;;;17.60;99.90;;;;;;5133886;27;20325;-60
2022/05/02 07:54:01;;;;;;;2.90;2.60;;;17.70;99.90;;;;;;5133995;27;20331;-60
2022/05/02 07:56:32;;;;;;;4.07;2.83;;;17.80;99.90;;;;;;5133965;27;20244;-60
2022/05/02 07:59:02;;;;;;;3.60;2.77;;;18.00;99.90;;;;;;5133859;27;20303;-60
2022/05/02 08:01:30;;;;;;;3.03;2.67;;;18.40;99.90;;;;;;5133841;27;20242;-60
2022/05/02 08:03:59;;;;;;;4.40;2.83;;;18.70;99.90;;;;;;5133580;27;20242;-61
2022/05/02 08:06:47;;;;;;;3.60;3.30;;;18.80;99.90;;;;;;5133732;27;20233;-60
2022/05/02 08:09:34;;;;;;;5.73;3.33;;;18.70;99.90;;;;;;5129944;27;20312;-60
2022/05/02 08:12:16;;;;;;;3.73;3.30;;;18.70;99.90;;;;;;5133786;27;20279;-60
2022/05/02 08:14:54;;;;;;;4.43;3.43;;;19.00;99.90;;;;;;5132909;27;20246;-60
2022/05/02 08:17:41;;;;;;;5.33;3.13;;;18.50;99.90;;;;;;5132875;27;20234;-60
2022/05/02 08:20:17;;;;;;;6.50;3.70;;;18.20;99.90;;;;;;5133250;27;20274;-60
2022/05/02 08:29:01;;;;;;;4.40;3.20;;;18.90;99.90;;;;;;5132453;27;20695;-59
2022/05/02 08:31:42;;;;;;;3.47;2.73;;;19.30;99.90;;;;;;5133040;27;20270;-59
2022/05/02 08:34:20;;;;;;;4.67;3.00;;;19.40;99.90;;;;;;5132718;27;20288;-60
2022/05/02 08:36:58;;;;;;;3.97;2.87;;;19.60;99.90;;;;;;5125901;27;20684;-60
2022/05/02 08:39:37;;;;;;;3.27;2.97;;;19.70;99.90;;;;;;5133225;27;20232;-60
2022/05/02 08:42:30;;;;;;;4.90;3.10;;;19.80;99.90;;;;;;5133083;27;20315;-60
2022/05/02 08:45:33;;;;;;;5.67;3.47;;;19.90;99.90;;;;;;5130861;27;20323;-60
2022/05/02 08:49:32;;;;;;;3.83;3.33;;;20.10;99.20;;;;;;5111993;28;20248;-60
2022/05/02 08:52:23;;;;;;;3.50;3.17;;;20.20;99.70;;;;;;5108521;28;20623;-60
2022/05/02 08:55:20;;;;;;;4.90;3.53;;;20.30;99.90;;;;;;5109700;28;20239;-60
2022/05/02 08:58:24;;;;;;;5.27;3.37;;;20.40;99.90;;;;;;5097725;28;20241;-60
2022/05/02 09:01:28;;;;;;;5.20;3.70;;;20.80;99.90;;;;;;5081100;28;20224;-60
2022/05/02 09:04:44;;;;;;;4.10;3.50;;;20.90;98.00;;;;;;5100904;28;20268;-60
2022/05/02 09:07:53;;;;;;;4.20;3.80;;;21.20;98.60;;;;;;5108380;28;20625;-62
2022/05/02 09:10:24;;;;;;;4.73;3.90;;;21.40;98.10;;;;;;5112044;28;20581;-60
2022/05/02 09:13:26;;;;;;;4.87;4.10;;;21.50;97.60;;;;;;5111246;27;20249;-60
2022/05/02 09:16:38;;;;;;;4.23;3.47;;;21.30;96.80;;;;;;5105813;28;20599;-61
2022/05/02 09:19:36;;;;;;;4.40;4.03;;;21.60;97.30;;;;;;5105131;28;20256;-60
2022/05/02 09:23:01;;;;;;;4.40;3.83;;;21.70;95.40;;;;;;5091583;28;20310;-60
2022/05/02 09:25:36;;;;;;;5.13;3.97;;;21.60;94.40;;;;;;5130569;27;20236;-60
2022/05/02 09:28:18;;;;;;;4.20;3.40;;;21.60;96.60;;;;;;5132225;27;20648;-61
2022/05/02 09:31:17;;;;;;;4.17;3.27;;;21.80;96.10;;;;;;5130458;27;20378;-61
2022/05/02 09:34:10;;;;;;;5.03;3.73;;;21.90;94.40;;;;;;5130934;27;20251;-60
2022/05/02 09:36:44;;;;;;;5.17;3.53;;;22.00;95.40;;;;;;5132031;27;20660;-60
2022/05/02 09:39:24;;;;;;;5.17;4.67;;;21.60;94.80;;;;;;5132144;27;20750;-61
2022/05/02 09:42:29;;;;;;;5.20;3.83;;;21.80;95.40;;;;;;5131601;27;20231;-60
2022/05/02 09:51:28;;;;;;;5.87;4.70;;;22.20;94.50;;;;;;5111341;28;20241;-61
2022/05/02 09:54:04;;;;;;;5.97;4.43;;;22.30;92.70;;;;;;5110730;28;20271;-60
2022/05/02 09:56:38;;;;;;;4.97;3.53;;;22.40;94.40;;;;;;5129522;27;20243;-61
2022/05/02 09:59:09;;;;;;;7.47;4.67;;;22.80;94.50;;;;;;5128535;27;20278;-60
2022/05/02 10:01:47;;;;;;;4.80;4.30;;;22.80;93.10;;;;;;5127619;27;20262;-61
2022/05/02 10:04:45;;;;;;;5.47;3.70;;;22.30;93.70;;;;;;5127217;27;20310;-61
2022/05/02 10:07:18;;;;;;;4.63;4.13;;;21.90;94.00;;;;;;5133350;27;20316;-61
2022/05/02 10:10:05;;;;;;;6.13;4.57;;;21.90;93.70;;;;;;5130339;27;20264;-60
2022/05/02 10:12:46;;;;;;;5.33;4.83;;;21.90;93.60;;;;;;5129280;27;20298;-60
2022/05/02 10:15:34;;;;;;;5.47;4.37;;;21.50;93.70;;;;;;5126977;27;20237;-62
2022/05/02 10:18:19;;;;;;;6.00;3.70;;;22.10;93.60;;;;;;5123753;27;20241;-60
2022/05/02 10:21:00;;;;;;;5.37;4.50;;;22.60;93.30;;;;;;5126394;27;20312;-60
2022/05/02 10:23:46;;;;;;;5.00;4.50;;;22.50;93.00;;;;;;5128890;27;20257;-60
2022/05/02 10:26:27;;;;;;;4.80;4.20;;;22.70;92.20;;;;;;5129300;27;20282;-62
2022/05/02 10:29:25;;;;;;;5.83;4.37;;;22.90;92.40;;;;;;5127205;27;20644;-62
2022/05/02 10:32:03;;;;;;;4.43;3.57;;;23.40;91.90;;;;;;5121086;27;21175;-62
2022/05/02 10:34:34;;;;;;;6.03;4.13;;;23.20;91.90;;;;;;5120762;27;20240;-62
2022/05/02 10:37:06;;;;;;;4.70;4.20;;;23.20;90.80;;;;;;5120747;27;20238;-61
2022/05/02 10:39:40;;;;;;;5.03;4.50;;;22.60;91.90;;;;;;5121451;28;20237;-60
2022/05/02 10:42:11;;;;;;;4.93;4.07;;;22.80;92.40;;;;;;5121219;28;21219;-62
2022/05/02 10:44:52;;;;;;;5.77;4.87;;;22.80;92.10;;;;;;5102295;28;20336;-62
2022/05/02 10:47:21;;;;;;;5.70;5.07;;;22.30;91.10;;;;;;5120705;27;20716;-62
2022/05/02 10:50:06;;;;;;;7.83;5.27;;;21.30;91.10;;;;;;5121330;27;20805;-62
2022/05/02 10:53:01;;;;;;;4.80;4.40;;;21.00;93.10;;;;;;5120588;28;22486;-61
2022/05/02 10:55:33;;;;;;;5.13;4.50;;;21.90;92.80;;;;;;5108429;27;20248;-61
2022/05/02 10:58:03;;;;;;;5.60;4.30;;;22.50;92.40;;;;;;5121712;27;20297;-61
2022/05/02 11:00:33;;;;;;;6.43;4.33;;;23.00;92.10;;;;;;5124724;27;20290;-61
2022/05/02 11:03:25;;;;;;;7.80;4.60;;;22.80;90.70;;;;;;5123513;27;20249;-62
2022/05/02 11:06:03;;;;;;;5.33;4.10;;;22.50;92.20;;;;;;5126708;27;20247;-60
2022/05/02 11:08:38;;;;;;;5.13;4.37;;;22.50;91.70;;;;;;5125851;27;20237;-61
2022/05/02 11:11:07;;;;;;;5.00;4.20;;;22.70;91.80;;;;;;5124794;27;20314;-62
2022/05/02 11:13:45;;;;;;;7.17;4.90;;;23.10;91.50;;;;;;5124975;27;20253;-62
2022/05/02 11:16:23;;;;;;;5.97;4.30;;;23.30;90.60;;;;;;5124035;27;20269;-61
2022/05/02 11:22:02;;;;;;;6.50;5.10;;;22.70;91.70;;;;;;5124016;27;20265;-61
2022/05/02 11:24:39;;;;;;;5.43;4.73;;;22.40;92.20;;;;;;5123451;27;20671;-62
2022/05/02 11:27:25;;;;;;;7.27;5.03;;;22.70;92.50;;;;;;5124204;27;20240;-61
2022/05/02 11:30:03;;;;;;;5.60;5.10;;;22.60;91.30;;;;;;5124134;27;20259;-61
2022/05/02 11:32:47;;;;;;;5.23;4.63;;;21.60;92.30;;;;;;5123908;27;20626;-61
2022/05/02 11:35:23;;;;;;;5.50;4.77;;;21.70;94.30;;;;;;5124054;27;20229;-62
2022/05/02 11:37:56;;;;;;;5.60;5.10;;;22.10;92.10;;;;;;5124466;27;20241;-62
2022/05/02 11:40:29;;;;;;;5.20;4.70;;;21.60;92.10;;;;;;5124547;27;20611;-60
2022/05/02 11:42:57;;;;;;;6.40;4.93;;;21.00;92.70;;;;;;5123319;27;20237;-62
2022/05/02 11:45:43;;;;;;;5.97;5.00;;;20.50;93.60;;;;;;5124197;27;20228;-61
2022/05/02 11:48:39;;;;;;;5.60;5.10;;;20.10;94.10;;;;;;5123723;27;20763;-61
2022/05/02 11:51:08;;;;;;;8.87;5.70;;;19.80;93.70;;;;;;5124202;27;20249;-61
2022/05/02 11:53:39;;;;;;;8.07;5.13;;;19.80;94.60;;;;;;5123769;27;20225;-61
2022/05/02 11:56:07;;;;;;;12.63;5.70;;;20.20;94.70;;;;;;5124055;27;20687;-61
2022/05/02 11:58:43;;;;;;;5.50;5.00;;;19.80;94.20;;;;;;5123969;27;21955;-60
2022/05/02 12:01:18;;;;;;;6.40;5.70;;;19.60;94.30;;;;;;5124443;27;21369;-61
2022/05/02 12:04:00;;;;;;;8.40;5.67;;;19.20;94.10;;;;;;5122207;27;20237;-61
2022/05/02 12:06:32;;;;;;;6.10;5.00;;;18.70;94.80;;;;;;5123721;27;20235;-61
2022/05/02 12:09:03;;;;;;;6.47;4.53;;;19.00;97.00;;;;;;5123735;27;20241;-61
2022/05/02 12:11:32;;;;;;;6.60;5.70;;;19.80;96.30;;;;;;5124507;27;20239;-60
2022/05/02 12:14:01;;;;;;;7.80;5.67;;;20.20;93.90;;;;;;5123008;27;20236;-62
2022/05/02 12:16:33;;;;;;;12.70;5.80;;;20.20;94.00;;;;;;5123150;27;20584;-62
2022/05/02 12:19:08;;;;;;;4.97;4.37;;;19.90;94.30;;;;;;5123261;27;20240;-60
2022/05/02 12:21:40;;;;;;;6.30;4.80;;;19.90;94.60;;;;;;5123408;27;20636;-60
2022/05/02 12:24:10;;;;;;;9.03;5.63;;;19.90;94.90;;;;;;5122931;27;20229;-61
2022/05/02 12:26:45;;;;;;;6.30;5.70;;;19.10;94.20;;;;;;5122975;27;20289;-62
2022/05/02 12:29:17;;;;;;;6.10;5.10;;;18.60;95.80;;;;;;5123058;27;20292;-61
2022/05/02 12:31:54;;;;;;;5.43;4.90;;;18.60;96.10;;;;;;5123049;27;20636;-61
2022/05/02 12:34:35;;;;;;;5.47;4.83;;;18.80;96.50;;;;;;5123488;27;20528;-61
2022/05/02 12:37:08;;;;;;;5.73;5.03;;;19.20;96.60;;;;;;5123929;27;20323;-62
2022/05/02 12:39:47;;;;;;;7.00;5.37;;;19.60;96.30;;;;;;5122938;27;20244;-61
2022/05/02 12:42:18;;;;;;;6.83;5.70;;;19.50;96.50;;;;;;5122346;27;20240;-61
2022/05/02 12:44:52;;;;;;;5.80;5.20;;;18.90;95.90;;;;;;5122158;27;20342;-61
2022/05/02 12:47:23;;;;;;;5.43;4.77;;;18.80;96.70;;;;;;5123099;27;20648;-62
2022/05/02 12:50:04;;;;;;;5.77;5.20;;;19.30;97.00;;;;;;5122830;27;20248;-62
2022/05/02 12:52:34;;;;;;;5.80;5.20;;;19.90;96.30;;;;;;5122151;27;20240;-64
2022/05/02 12:55:03;;;;;;;6.10;5.50;;;20.20;95.30;;;;;;5122230;27;20317;-63
2022/05/02 13:00:32;;;;;;;5.50;5.00;;;19.90;95.90;;;;;;5121807;27;20248;-62
2022/05/02 13:03:15;;;;;;;7.97;6.20;;;20.00;96.30;;;;;;5122021;27;20296;-61
2022/05/02 13:05:54;;;;;;;6.47;5.50;;;19.60;95.60;;;;;;5121958;27;20603;-63
2022/05/02 13:08:33;;;;;;;8.07;6.40;;;19.40;96.30;;;;;;5122142;27;20279;-62
2022/05/02 13:11:08;;;;;;;8.33;6.93;;;19.10;96.90;;;;;;5122685;27;20246;-62
2022/05/02 13:13:45;;;;;;;5.33;4.70;;;18.60;96.80;;;;;;5122437;27;20606;-62
2022/05/02 13:16:16;;;;;;;5.60;4.40;;;18.10;99.20;;;;;;5123426;27;20298;-62
2022/05/02 13:18:49;;;;;;;6.33;5.03;;;18.30;99.50;;;;;;5123436;27;20671;-61
2022/05/02 13:21:20;;;;;;;7.77;5.33;;;18.60;99.90;;;;;;5122166;27;20239;-61
2022/05/02 13:23:51;;;;;;;5.97;5.40;;;17.90;99.20;;;;;;5122433;27;20246;-61
2022/05/02 13:27:04;;;;;;;5.47;4.77;;;17.40;99.90;;;;;;5122414;27;20243;-60
2022/05/02 13:29:58;;;;;;;8.23;4.50;;;17.20;99.90;;;;;;5036168;28;20237;-62
2022/05/02 13:32:28;;;;;;;5.13;4.63;;;17.10;99.90;;;;;;5093468;27;20273;-61
2022/05/02 13:35:06;;;;;;;5.30;4.80;;;17.00;99.90;;;;;;5099722;27;20261;-61
2022/05/02 13:37:49;;;;;;;5.47;4.00;;;16.70;99.70;;;;;;5099762;27;20315;-62
2022/05/02 13:40:20;;;;;;;5.63;4.33;;;16.50;99.90;;;;;;5099368;27;20233;-61
2022/05/02 13:42:57;;;;;;;5.80;4.53;;;16.60;99.90;;;;;;5100462;27;20254;-62
2022/05/02 13:45:35;;;;;;;3.97;2.87;;;16.60;99.90;;;;;;5097561;27;20233;-61
2022/05/02 13:48:26;;;;;;;5.33;4.10;;;17.00;99.90;;;;;;5097907;27;20249;-61
2022/05/02 13:51:04;;;;;;;4.70;4.10;;;17.50;99.90;;;;;;5109153;27;20526;-61
2022/05/02 13:53:45;;;;;;;5.40;3.70;;;17.50;99.90;;;;;;5121737;27;20252;-61
2022/05/02 13:56:30;;;;;;;4.63;4.17;;;17.50;99.90;;;;;;5121839;27;20641;-60
2022/05/02 13:59:03;;;;;;;4.47;4.07;;;17.80;99.90;;;;;;5121624;27;20233;-61
2022/05/02 14:01:58;;;;;;;6.80;4.70;;;18.00;99.90;;;;;;5121889;27;20248;-62
2022/05/02 14:04:38;;;;;;;5.60;4.60;;;17.40;99.20;;;;;;5108794;27;20230;-62
2022/05/02 14:07:14;;;;;;;5.03;4.30;;;16.70;99.40;;;;;;5100671;28;20322;-64